createdAt,value
2023-01-13T00:01:38.222Z,23.50
2023-01-13T00:04:40.757Z,39.80
2023-01-13T00:07:43.310Z,36.33
2023-01-13T00:10:47.811Z,31.13
2023-01-13T00:13:51.708Z,25.98
2023-01-13T00:16:54.224Z,25.05
2023-01-13T00:19:57.327Z,29.92
2023-01-13T00:23:00.156Z,31.23
2023-01-13T00:26:03.954Z,33.20
2023-01-13T00:29:07.849Z,35.03
2023-01-13T00:32:10.367Z,41.78
2023-01-13T00:35:12.899Z,32.95
2023-01-13T00:38:15.430Z,26.45
2023-01-13T00:41:18.642Z,37.83
2023-01-13T00:44:21.596Z,38.30
2023-01-13T00:47:24.235Z,38.30
2023-01-13T00:50:28.481Z,30.17
2023-01-13T00:53:33.675Z,34.25
2023-01-13T00:56:41.009Z,41.55
2023-01-13T00:59:45.256Z,36.75
2023-01-13T01:02:47.861Z,39.30
2023-01-13T01:05:50.394Z,42.40
2023-01-13T01:08:53.048Z,27.20
2023-01-13T01:11:55.592Z,33.45
2023-01-13T01:14:59.478Z,39.72
2023-01-13T01:18:02.004Z,41.38
2023-01-13T01:21:04.892Z,33.28
2023-01-13T01:24:08.079Z,44.03
2023-01-13T01:27:10.637Z,33.85
2023-01-13T01:30:15.917Z,26.90
2023-01-13T01:33:18.461Z,28.15
2023-01-13T01:36:21.596Z,35.53
2023-01-13T01:39:24.130Z,34.92
2023-01-13T01:42:44.076Z,32.28
2023-01-13T01:45:47.965Z,29.83
2023-01-13T01:48:50.474Z,16.88
2023-01-13T01:51:54.630Z,41.92
2023-01-13T01:54:58.562Z,43.28
2023-01-13T01:58:03.460Z,45.35
2023-01-13T02:01:07.533Z,33.08
2023-01-13T02:04:12.759Z,35.97
2023-01-13T02:07:15.293Z,30.77
2023-01-13T02:10:19.356Z,36.20
2023-01-13T02:13:21.898Z,26.73
2023-01-13T02:16:25.821Z,25.98
2023-01-13T02:20:02.761Z,31.05
2023-01-13T02:23:40.762Z,37.80
2023-01-13T02:27:08.694Z,52.67
2023-01-13T02:30:31.802Z,47.65
2023-01-13T02:33:38.955Z,57.15
2023-01-13T02:36:47.191Z,52.53
2023-01-13T02:39:51.543Z,32.08
2023-01-13T02:43:26.955Z,47.28
2023-01-13T02:46:32.054Z,38.00
2023-01-13T02:49:35.489Z,30.80
2023-01-13T02:52:40.316Z,37.15
2023-01-13T02:55:46.263Z,31.10
2023-01-13T02:58:48.799Z,32.83
2023-01-13T03:01:53.192Z,43.28
2023-01-13T03:04:56.575Z,39.13
2023-01-13T03:08:11.856Z,23.75
2023-01-13T03:11:14.807Z,38.08
2023-01-13T03:14:26.280Z,27.35
2023-01-13T03:17:33.152Z,18.95
2023-01-13T03:20:38.385Z,20.85
2023-01-13T03:23:45.302Z,20.88
2023-01-13T03:26:49.303Z,38.17
2023-01-13T03:29:54.292Z,28.23
2023-01-13T03:32:59.676Z,16.10
2023-01-13T03:36:04.010Z,24.17
2023-01-13T03:39:08.733Z,30.35
2023-01-13T03:42:13.016Z,19.83
2023-01-13T03:45:15.617Z,19.42
2023-01-13T03:48:20.083Z,15.38
2023-01-13T03:51:22.616Z,37.35
2023-01-13T03:54:25.839Z,18.48
2023-01-13T03:57:30.879Z,21.98
2023-01-13T04:00:34.868Z,21.55
2023-01-13T04:03:40.963Z,20.52
2023-01-13T04:06:47.002Z,22.25
2023-01-13T04:09:50.728Z,19.65
2023-01-13T04:13:04.104Z,19.00
2023-01-13T04:16:07.118Z,22.65
2023-01-13T04:19:11.061Z,19.52
2023-01-13T04:22:13.622Z,22.38
2023-01-13T04:25:16.343Z,13.63
2023-01-13T04:28:18.934Z,26.88
2023-01-13T04:31:21.621Z,16.35
2023-01-13T04:34:28.163Z,12.95
2023-01-13T04:37:30.855Z,19.90
2023-01-13T04:40:33.385Z,17.80
2023-01-13T04:43:35.963Z,12.82
2023-01-13T04:46:38.575Z,18.92
2023-01-13T04:49:42.623Z,14.55
2023-01-13T04:52:45.164Z,20.27
2023-01-13T04:55:49.627Z,16.85
2023-01-13T04:58:52.246Z,14.00
2023-01-13T05:01:54.879Z,13.63
2023-01-13T05:04:58.935Z,19.23
2023-01-13T05:08:01.598Z,26.13
2023-01-13T05:11:24.541Z,19.13
2023-01-13T05:14:44.920Z,16.55
2023-01-13T05:17:47.434Z,19.98
2023-01-13T05:20:51.407Z,11.00
2023-01-13T05:24:11.516Z,16.45
2023-01-13T05:27:14.098Z,21.08
2023-01-13T05:30:17.391Z,14.63
2023-01-13T05:33:21.176Z,17.83
2023-01-13T05:36:25.135Z,22.67
2023-01-13T05:39:28.068Z,6.22
2023-01-13T05:42:48.312Z,25.88
2023-01-13T05:45:52.320Z,21.65
2023-01-13T05:48:54.903Z,23.17
2023-01-13T05:51:58.836Z,21.45
2023-01-13T05:55:01.363Z,22.80
2023-01-13T05:58:03.931Z,18.13
2023-01-13T06:01:07.542Z,15.15
2023-01-13T06:04:10.160Z,21.63
2023-01-13T06:07:14.095Z,20.40
2023-01-13T06:10:17.079Z,33.78
2023-01-13T06:13:19.665Z,20.63
2023-01-13T06:16:22.345Z,31.95
2023-01-13T06:19:24.892Z,14.98
2023-01-13T06:22:30.931Z,24.15
2023-01-13T06:25:39.216Z,17.67
2023-01-13T06:28:41.815Z,17.52
2023-01-13T06:31:44.461Z,24.80
2023-01-13T06:34:48.321Z,31.45
2023-01-13T06:37:52.803Z,25.33
2023-01-13T06:40:55.400Z,17.23
2023-01-13T06:43:56.975Z,14.98
2023-01-13T06:46:59.598Z,24.05
2023-01-13T06:50:02.185Z,23.02
2023-01-13T06:53:06.104Z,15.07
2023-01-13T06:56:08.766Z,17.65
2023-01-13T06:59:11.403Z,18.30
2023-01-13T07:02:14.144Z,24.83
2023-01-13T07:05:17.029Z,24.05
2023-01-13T07:08:20.948Z,15.93
2023-01-13T07:11:23.517Z,22.45
2023-01-13T07:14:43.506Z,21.92
2023-01-13T07:17:46.091Z,23.17
2023-01-13T07:20:53.385Z,17.08
2023-01-13T07:23:57.312Z,15.80
2023-01-13T07:26:59.904Z,16.88
2023-01-13T07:30:02.428Z,19.42
2023-01-13T07:33:05.176Z,19.95
2023-01-13T07:36:08.289Z,21.80
2023-01-13T07:39:12.225Z,18.60
2023-01-13T07:42:32.365Z,21.75
2023-01-13T07:45:35.042Z,27.65
2023-01-13T07:48:38.126Z,13.73
2023-01-13T07:51:40.743Z,24.48
2023-01-13T07:54:44.663Z,13.75
2023-01-13T07:57:48.463Z,21.90
2023-01-13T08:00:51.015Z,18.58
2023-01-13T08:03:53.602Z,27.10
2023-01-13T08:06:56.193Z,31.05
2023-01-13T08:10:00.140Z,20.50
2023-01-13T08:13:21.217Z,27.90
2023-01-13T08:16:23.901Z,20.08
2023-01-13T08:19:26.516Z,27.13
2023-01-13T08:22:30.944Z,26.38
2023-01-13T08:25:34.842Z,25.63
2023-01-13T08:28:37.555Z,33.67
2023-01-13T08:31:40.159Z,25.70
2023-01-13T08:34:42.822Z,31.08
2023-01-13T08:37:45.499Z,26.25
2023-01-13T08:40:49.387Z,32.45
2023-01-13T08:43:54.563Z,19.27
2023-01-13T08:46:57.319Z,33.70
2023-01-13T08:49:59.916Z,19.95
2023-01-13T08:53:02.466Z,23.55
2023-01-13T08:56:10.856Z,17.67
2023-01-13T08:59:13.667Z,22.17
2023-01-13T09:02:17.053Z,16.48
2023-01-13T09:05:19.715Z,23.98
2023-01-13T09:08:22.262Z,27.05
2023-01-13T09:11:47.224Z,24.33
2023-01-13T09:14:49.754Z,24.02
2023-01-13T09:17:52.345Z,15.90
2023-01-13T09:20:54.875Z,17.52
2023-01-13T09:23:57.412Z,22.42
2023-01-13T09:27:01.338Z,24.67
2023-01-13T09:30:04.176Z,18.48
2023-01-13T09:33:24.579Z,19.60
2023-01-13T09:36:27.157Z,17.48
2023-01-13T09:39:29.683Z,17.98
2023-01-13T09:42:54.087Z,25.75
2023-01-13T09:45:58.928Z,20.60
2023-01-13T09:49:03.570Z,23.65
2023-01-13T09:52:09.010Z,35.63
2023-01-13T09:55:14.975Z,32.78
2023-01-13T09:58:19.703Z,25.25
2023-01-13T10:01:25.085Z,21.77
2023-01-13T10:04:27.748Z,19.80
2023-01-13T10:07:30.826Z,20.42
2023-01-13T10:10:37.751Z,25.08
2023-01-13T10:13:41.493Z,16.48
2023-01-13T10:16:45.935Z,11.38
2023-01-13T10:19:49.738Z,21.23
2023-01-13T10:22:58.749Z,24.83
2023-01-13T10:26:04.874Z,21.73
2023-01-13T10:29:20.611Z,17.48
2023-01-13T10:32:23.193Z,29.85
2023-01-13T10:35:51.465Z,16.65
2023-01-13T10:38:54.017Z,20.92
2023-01-13T10:42:03.796Z,10.65
2023-01-13T10:45:18.397Z,19.30
2023-01-13T10:48:20.963Z,19.00
2023-01-13T10:51:25.309Z,16.30
2023-01-13T10:54:27.917Z,14.88
2023-01-13T10:57:30.572Z,23.77
2023-01-13T11:00:34.880Z,20.88
2023-01-13T11:03:41.150Z,20.95
2023-01-13T11:06:46.314Z,14.00
2023-01-13T11:09:48.861Z,23.52
2023-01-13T11:13:05.259Z,17.98
2023-01-13T11:16:12.277Z,19.77
2023-01-13T11:19:16.704Z,32.50
2023-01-13T11:22:21.609Z,26.90
2023-01-13T11:25:31.388Z,20.48
2023-01-13T11:28:39.212Z,19.25
2023-01-13T11:31:44.448Z,16.00
2023-01-13T11:34:48.840Z,28.33
2023-01-13T11:37:53.674Z,24.90
2023-01-13T11:40:58.224Z,12.38
2023-01-13T11:44:07.478Z,15.52
2023-01-13T11:47:11.749Z,14.75
2023-01-13T11:50:16.534Z,18.73
2023-01-13T11:53:29.491Z,16.42
2023-01-13T11:56:46.947Z,24.80
2023-01-13T11:59:56.467Z,30.10
2023-01-13T12:03:11.704Z,17.95
2023-01-13T12:06:23.026Z,27.35
2023-01-13T12:09:34.055Z,16.08
2023-01-13T12:12:43.300Z,17.38
2023-01-13T12:16:06.565Z,9.10
2023-01-13T12:19:19.872Z,13.88
2023-01-13T12:22:24.545Z,18.20
2023-01-13T12:25:31.210Z,17.15
2023-01-13T12:28:41.278Z,17.00
2023-01-13T12:31:43.916Z,11.35
2023-01-13T12:34:56.023Z,11.35
2023-01-13T12:38:00.967Z,13.27
2023-01-13T12:41:10.361Z,15.10
2023-01-13T12:44:17.875Z,20.63
2023-01-13T12:50:43.909Z,25.38
2023-01-13T12:53:46.521Z,12.23
2023-01-13T12:56:49.063Z,10.18
2023-01-13T13:00:18.376Z,12.05
2023-01-13T13:03:28.555Z,20.77
2023-01-13T13:06:32.551Z,13.20
2023-01-13T13:09:38.079Z,15.13
2023-01-13T13:13:11.684Z,22.77
2023-01-13T13:16:37.319Z,22.70
2023-01-13T13:19:47.439Z,14.55
2023-01-13T13:22:52.711Z,19.42
2023-01-13T13:26:04.620Z,19.67
2023-01-13T13:29:29.704Z,19.08
2023-01-13T13:32:39.327Z,15.48
2023-01-13T13:35:54.830Z,20.38
2023-01-13T13:39:28.681Z,14.60
2023-01-13T13:42:50.869Z,14.20
2023-01-13T13:46:11.242Z,22.88
2023-01-13T13:49:14.049Z,18.10
2023-01-13T13:52:19.788Z,17.48
2023-01-13T13:55:24.702Z,17.83
2023-01-13T13:58:27.332Z,22.02
2023-01-13T14:01:31.070Z,17.95
2023-01-13T14:04:35.480Z,24.33
2023-01-13T14:07:43.745Z,13.30
2023-01-13T14:10:47.677Z,14.35
2023-01-13T14:13:55.587Z,17.02
2023-01-13T14:16:58.657Z,12.23
2023-01-13T14:20:02.515Z,12.05
2023-01-13T14:23:05.763Z,26.15
2023-01-13T14:26:12.880Z,14.60
2023-01-13T14:29:17.494Z,20.02
2023-01-13T14:32:20.879Z,22.25
2023-01-13T14:35:23.412Z,16.58
2023-01-13T14:38:25.995Z,12.38
2023-01-13T14:41:30.881Z,20.33
2023-01-13T14:44:35.011Z,17.88
2023-01-13T14:47:39.414Z,14.73
2023-01-13T14:50:42.569Z,14.98
2023-01-13T14:53:46.879Z,14.20
2023-01-13T14:56:55.096Z,18.13
2023-01-13T15:00:01.530Z,18.10
2023-01-13T15:03:07.192Z,17.60
2023-01-13T15:06:22.627Z,14.00
2023-01-13T15:09:26.374Z,16.17
2023-01-13T15:12:35.628Z,12.43
2023-01-13T15:15:39.550Z,25.92
2023-01-13T15:18:42.240Z,16.02
2023-01-13T15:21:44.778Z,13.95
2023-01-13T15:24:47.942Z,16.38
2023-01-13T15:27:52.179Z,16.08
2023-01-13T15:30:55.270Z,19.10
2023-01-13T15:33:58.727Z,15.40
2023-01-13T15:37:01.337Z,17.23
2023-01-13T15:40:04.159Z,20.00
2023-01-13T15:43:27.226Z,12.55
2023-01-13T15:46:39.105Z,26.65
2023-01-13T15:49:42.860Z,18.73
2023-01-13T15:52:45.401Z,15.40
2023-01-13T15:55:49.942Z,20.85
2023-01-13T15:58:53.835Z,12.18
2023-01-13T16:01:56.377Z,11.52
2023-01-13T16:04:58.953Z,13.63
2023-01-13T16:08:01.563Z,8.25
2023-01-13T16:11:04.131Z,17.60
2023-01-13T16:14:08.058Z,17.98
2023-01-13T16:17:15.047Z,11.63
2023-01-13T16:20:18.460Z,11.07
2023-01-13T16:23:21.078Z,12.35
2023-01-13T16:26:24.873Z,8.18
2023-01-13T16:29:28.767Z,17.92
2023-01-13T16:32:31.306Z,15.43
2023-01-13T16:35:35.187Z,9.35
2023-01-13T16:38:37.762Z,11.00
2023-01-13T16:41:40.299Z,13.15
2023-01-13T16:44:46.455Z,15.27
2023-01-13T16:47:49.116Z,18.60
2023-01-13T16:50:51.724Z,34.33
2023-01-13T16:53:54.314Z,13.82
2023-01-13T16:56:56.868Z,12.07
2023-01-13T17:00:00.873Z,12.68
2023-01-13T17:03:03.461Z,16.42
2023-01-13T17:06:07.496Z,6.55
2023-01-13T17:09:19.673Z,15.13
2023-01-13T17:12:22.281Z,15.75
2023-01-13T17:15:26.161Z,7.80
2023-01-13T17:18:28.727Z,10.38
2023-01-13T17:21:31.303Z,14.25
2023-01-13T17:24:35.095Z,13.50
2023-01-13T17:27:37.628Z,12.20
2023-01-13T17:30:44.105Z,9.73
2023-01-13T17:33:46.676Z,11.73
2023-01-13T17:36:49.415Z,9.48
2023-01-13T17:39:53.482Z,9.63
2023-01-13T17:42:57.175Z,10.13
2023-01-13T17:46:01.129Z,12.70
2023-01-13T17:49:03.699Z,14.23
2023-01-13T17:52:07.020Z,19.70
2023-01-13T17:55:10.264Z,19.70
2023-01-13T17:58:12.820Z,22.55
2023-01-13T18:01:18.082Z,25.50
2023-01-13T18:04:21.512Z,18.77
2023-01-13T18:07:24.033Z,14.48
2023-01-13T18:10:26.707Z,13.68
2023-01-13T18:13:29.254Z,10.60
2023-01-13T18:16:33.282Z,14.23
2023-01-13T18:19:53.383Z,5.35
2023-01-13T18:23:13.703Z,10.27
2023-01-13T18:26:34.892Z,17.88
2023-01-13T18:29:37.431Z,17.00
2023-01-13T18:32:41.295Z,13.55
2023-01-13T18:35:43.938Z,18.77
2023-01-13T18:38:46.553Z,10.73
2023-01-13T18:42:21.456Z,13.48
2023-01-13T18:45:25.184Z,10.82
2023-01-13T18:48:31.147Z,7.95
2023-01-13T18:51:33.690Z,9.98
2023-01-13T18:54:36.419Z,15.85
2023-01-13T18:57:40.596Z,16.98
2023-01-13T19:00:43.175Z,17.30
2023-01-13T19:03:47.108Z,21.80
2023-01-13T19:06:51.625Z,23.45
2023-01-13T19:09:55.395Z,13.15
2023-01-13T19:12:58.016Z,12.63
2023-01-13T19:16:05.461Z,14.80
2023-01-13T19:22:12.104Z,17.42
2023-01-13T19:25:14.674Z,13.00
2023-01-13T19:28:17.258Z,13.02
2023-01-13T19:31:20.565Z,18.48
2023-01-13T19:34:25.310Z,14.85
2023-01-13T19:37:30.258Z,15.80
2023-01-13T19:40:32.963Z,12.02
2023-01-13T19:43:53.226Z,13.25
2023-01-13T19:46:55.796Z,15.60
2023-01-13T19:50:03.412Z,11.52
2023-01-13T19:53:06.084Z,8.07
2023-01-13T19:56:08.723Z,13.48
2023-01-13T19:59:12.634Z,19.73
2023-01-13T20:02:16.025Z,24.00
2023-01-13T20:05:22.434Z,17.70
2023-01-13T20:08:25.107Z,12.55
2023-01-13T20:11:31.287Z,16.23
2023-01-13T20:14:33.872Z,18.67
2023-01-13T20:17:36.442Z,14.27
2023-01-13T20:20:40.371Z,29.02
2023-01-13T20:23:44.145Z,15.80
2023-01-13T20:26:47.320Z,11.25
2023-01-13T20:29:49.905Z,8.77
2023-01-13T20:32:52.956Z,19.67
2023-01-13T20:35:59.923Z,15.05
2023-01-13T20:39:05.904Z,19.30
2023-01-13T20:42:25.945Z,13.93
2023-01-13T20:45:28.478Z,21.73
2023-01-13T20:48:31.061Z,21.83
2023-01-13T20:51:34.942Z,17.27
2023-01-13T20:54:37.663Z,24.08
2023-01-13T20:57:40.338Z,13.20
2023-01-13T21:00:42.971Z,18.23
2023-01-13T21:03:45.647Z,11.63
2023-01-13T21:06:49.827Z,25.88
2023-01-13T21:09:52.473Z,20.52
2023-01-13T21:13:12.735Z,18.60
2023-01-13T21:16:15.432Z,21.25
2023-01-13T21:19:18.142Z,21.75
2023-01-13T21:22:22.042Z,16.60
2023-01-13T21:25:24.638Z,29.95
2023-01-13T21:28:27.174Z,20.02
2023-01-13T21:31:29.781Z,19.40
2023-01-13T21:34:32.842Z,17.17
2023-01-13T21:37:38.026Z,15.63
2023-01-13T21:40:40.610Z,18.73
2023-01-13T21:44:00.584Z,22.95
2023-01-13T21:47:20.803Z,16.00
2023-01-13T21:50:24.104Z,20.98
2023-01-13T21:53:27.982Z,19.15
2023-01-13T21:56:30.548Z,20.92
2023-01-13T21:59:33.078Z,13.50
2023-01-13T22:02:36.489Z,9.93
2023-01-13T22:05:39.370Z,18.02
2023-01-13T22:08:43.263Z,15.30
2023-01-13T22:11:45.802Z,20.40
2023-01-13T22:14:48.452Z,18.33
2023-01-13T22:17:52.176Z,17.48
2023-01-13T22:20:54.726Z,16.35
2023-01-13T22:23:59.190Z,15.20
2023-01-13T22:27:01.798Z,14.25
2023-01-13T22:30:04.387Z,19.88
2023-01-13T22:33:06.959Z,17.85
2023-01-13T22:36:09.653Z,14.77
2023-01-13T22:39:13.568Z,10.73
2023-01-13T22:42:16.204Z,26.23
2023-01-13T22:45:18.784Z,14.00
2023-01-13T22:48:21.303Z,16.00
2023-01-13T22:51:23.976Z,10.70
2023-01-13T22:54:27.915Z,19.23
2023-01-13T22:57:36.064Z,18.40
2023-01-13T23:00:41.737Z,18.52
2023-01-13T23:03:46.137Z,19.42
2023-01-13T23:06:48.785Z,14.38
2023-01-13T23:09:52.708Z,16.67
2023-01-13T23:12:55.251Z,8.00
2023-01-13T23:15:57.895Z,11.57
2023-01-13T23:19:00.567Z,15.80
2023-01-13T23:22:03.090Z,18.52
2023-01-13T23:25:08.348Z,12.27
2023-01-13T23:28:10.875Z,13.50
2023-01-13T23:31:14.769Z,10.13
2023-01-13T23:34:17.338Z,10.73
2023-01-13T23:37:19.924Z,15.82
2023-01-13T23:40:23.810Z,14.10
2023-01-13T23:43:27.195Z,13.30
2023-01-13T23:46:30.016Z,16.33
2023-01-13T23:49:32.681Z,16.13
2023-01-13T23:52:35.268Z,19.45
2023-01-13T23:55:39.224Z,18.40
2023-01-13T23:58:41.914Z,16.50
